Time;durP1;ratioP1;P1;durP2;ratioP2;P2;SDS_P1;SDS_P2;PMS_P1;PMS_P2;Temp;Humidity;BMP_temperature;BMP_pressure;BME280_temperature;BME280_humidity;BME280_pressure;Samples;Min_cycle;Max_cycle;Signal;HPM_P1;HPM_P2
2024/01/10 00:00:42;;;;;;;4.07;2.15;;;3.50;97.30;;;;;;10367895;28;20030;-71
2024/01/10 00:05:42;;;;;;;3.38;1.92;;;3.50;97.30;;;;;;10354481;28;20029;-71
2024/01/10 00:10:43;;;;;;;5.40;2.47;;;3.50;97.30;;;;;;10377962;28;20120;-71
2024/01/10 00:15:43;;;;;;;3.47;2.30;;;3.50;97.30;;;;;;10370530;28;20022;-71
2024/01/10 00:20:44;;;;;;;4.30;2.35;;;3.50;97.30;;;;;;10351964;28;21240;-70
2024/01/10 00:25:44;;;;;;;4.25;2.25;;;3.50;97.60;;;;;;10356424;28;20057;-71
2024/01/10 00:30:48;;;;;;;4.93;2.30;;;3.50;97.30;;;;;;10361093;28;20030;-71
2024/01/10 00:35:48;;;;;;;4.90;2.40;;;3.50;97.30;;;;;;10369922;28;20363;-71
2024/01/10 00:40:49;;;;;;;3.67;2.17;;;3.50;97.30;;;;;;10341036;28;20033;-71
2024/01/10 00:45:49;;;;;;;4.97;2.40;;;3.50;97.30;;;;;;10375740;28;20041;-71
2024/01/10 00:50:50;;;;;;;4.63;2.75;;;3.40;97.30;;;;;;10347539;28;20030;-71
2024/01/10 00:55:50;;;;;;;3.28;1.90;;;3.50;97.30;;;;;;10369482;28;20022;-70
2024/01/10 01:00:51;;;;;;;4.03;2.35;;;3.40;97.30;;;;;;10368024;28;20013;-70
2024/01/10 01:05:51;;;;;;;4.43;2.50;;;3.40;97.50;;;;;;10370126;28;20059;-70
2024/01/10 01:10:52;;;;;;;4.13;2.35;;;3.40;97.30;;;;;;10363809;28;20029;-69
2024/01/10 01:15:53;;;;;;;4.80;2.60;;;3.40;97.30;;;;;;10362783;28;20560;-70
2024/01/10 01:20:53;;;;;;;3.65;2.30;;;3.40;97.30;;;;;;10366749;28;20026;-70
2024/01/10 01:25:54;;;;;;;4.85;2.50;;;3.40;97.30;;;;;;10369282;28;20040;-71
2024/01/10 01:30:54;;;;;;;4.47;1.98;;;3.40;97.30;;;;;;10375141;28;20034;-71
2024/01/10 01:35:55;;;;;;;3.88;2.35;;;3.40;97.30;;;;;;10374909;28;20418;-71
2024/01/10 01:40:56;;;;;;;4.38;2.13;;;3.40;97.30;;;;;;10345199;28;20036;-71
2024/01/10 01:45:56;;;;;;;4.90;2.58;;;3.40;97.30;;;;;;10373262;28;20033;-71
2024/01/10 01:51:02;;;;;;;3.83;2.17;;;3.40;97.30;;;;;;10373614;28;20018;-70
2024/01/10 01:56:06;;;;;;;4.22;2.33;;;3.40;97.30;;;;;;10361707;28;20029;-69
2024/01/10 02:01:07;;;;;;;4.22;2.30;;;3.40;97.30;;;;;;10370008;28;20018;-71
2024/01/10 02:06:08;;;;;;;6.07;2.28;;;3.40;97.30;;;;;;10363092;28;20026;-71
2024/01/10 02:11:08;;;;;;;4.80;2.53;;;3.40;97.30;;;;;;10348883;28;20019;-71
2024/01/10 02:16:09;;;;;;;4.50;2.55;;;3.40;97.30;;;;;;10353324;28;20525;-71
2024/01/10 02:21:10;;;;;;;5.97;3.03;;;3.40;97.30;;;;;;10359163;28;20438;-70
2024/01/10 02:26:10;;;;;;;4.28;2.20;;;3.40;97.30;;;;;;10344604;28;20086;-70
2024/01/10 02:31:11;;;;;;;4.45;2.55;;;3.40;97.30;;;;;;10346562;28;20052;-70
2024/01/10 02:36:12;;;;;;;5.95;2.40;;;3.30;97.20;;;;;;10355781;28;20021;-71
2024/01/10 02:41:12;;;;;;;3.95;2.15;;;3.30;97.20;;;;;;10346267;28;20030;-70
2024/01/10 02:46:13;;;;;;;5.43;2.78;;;3.30;97.20;;;;;;10361904;28;20029;-71
2024/01/10 02:51:13;;;;;;;3.97;2.35;;;3.30;97.20;;;;;;10341718;28;20021;-71
2024/01/10 02:56:14;;;;;;;4.40;2.40;;;3.30;97.20;;;;;;10352905;28;20119;-70
2024/01/10 03:01:15;;;;;;;4.15;2.20;;;3.30;97.20;;;;;;10343818;28;20298;-69
2024/01/10 03:06:15;;;;;;;6.22;2.72;;;3.30;97.20;;;;;;10355581;28;20055;-70
2024/01/10 03:11:16;;;;;;;5.93;2.70;;;3.30;97.20;;;;;;10337082;28;20037;-71
2024/01/10 03:16:17;;;;;;;4.28;2.35;;;3.30;97.20;;;;;;10333380;28;20022;-70
2024/01/10 03:21:24;;;;;;;4.40;2.13;;;3.30;97.20;;;;;;10352886;28;20026;-71
2024/01/10 03:26:25;;;;;;;5.35;2.60;;;3.30;97.20;;;;;;10352526;28;20524;-70
2024/01/10 03:31:30;;;;;;;4.35;2.40;;;3.30;97.20;;;;;;10358606;28;20026;-71
2024/01/10 03:36:30;;;;;;;5.45;2.40;;;3.30;97.20;;;;;;10361466;28;20072;-71
2024/01/10 03:41:31;;;;;;;4.63;2.80;;;3.20;97.20;;;;;;10360505;28;20363;-70
2024/01/10 03:46:33;;;;;;;5.40;2.60;;;3.30;97.20;;;;;;10354682;28;20062;-70
2024/01/10 03:51:34;;;;;;;6.13;2.58;;;3.30;97.20;;;;;;10352833;28;20029;-71
2024/01/10 03:56:35;;;;;;;3.97;2.38;;;3.20;97.20;;;;;;10355734;28;20045;-70
2024/01/10 04:01:38;;;;;;;4.40;2.75;;;3.20;97.20;;;;;;10361884;28;20017;-70
2024/01/10 04:06:39;;;;;;;7.85;3.25;;;3.20;97.20;;;;;;10367414;28;20506;-71
2024/01/10 04:11:40;;;;;;;4.47;2.55;;;3.20;97.20;;;;;;10366901;28;20105;-70
2024/01/10 04:16:40;;;;;;;4.80;2.70;;;3.20;97.20;;;;;;10368332;28;20052;-71
2024/01/10 04:21:41;;;;;;;5.35;2.55;;;3.20;97.10;;;;;;10348390;28;20057;-71
2024/01/10 04:26:41;;;;;;;5.45;2.65;;;3.20;97.20;;;;;;10366241;28;20551;-71
2024/01/10 04:31:42;;;;;;;5.18;2.70;;;3.20;97.10;;;;;;10375071;28;20105;-71
2024/01/10 04:36:43;;;;;;;4.18;2.35;;;3.20;97.10;;;;;;10365473;28;20102;-71
2024/01/10 04:41:43;;;;;;;5.53;2.53;;;3.20;97.40;;;;;;10350786;28;20536;-71
2024/01/10 04:46:44;;;;;;;4.15;2.53;;;3.20;97.10;;;;;;10370004;28;20481;-71
2024/01/10 04:51:45;;;;;;;4.45;2.45;;;3.20;96.90;;;;;;10361812;28;20477;-71
2024/01/10 04:56:46;;;;;;;3.83;2.38;;;3.20;97.10;;;;;;10372644;28;20553;-71
2024/01/10 05:01:47;;;;;;;5.97;2.67;;;3.20;97.10;;;;;;10355257;28;20026;-71
2024/01/10 05:06:48;;;;;;;4.35;2.40;;;3.10;97.10;;;;;;10374210;28;20405;-71
2024/01/10 05:11:51;;;;;;;3.88;2.08;;;3.20;97.20;;;;;;10355164;28;20026;-71
2024/01/10 05:16:53;;;;;;;4.38;2.20;;;3.10;97.10;;;;;;10351847;28;20595;-71
2024/01/10 05:21:54;;;;;;;4.93;2.35;;;3.10;97.10;;;;;;10375210;28;20018;-71
2024/01/10 05:26:55;;;;;;;4.03;2.40;;;3.10;97.10;;;;;;10356395;28;20029;-71
2024/01/10 05:31:55;;;;;;;4.22;2.30;;;3.10;97.10;;;;;;10370661;28;20029;-71
2024/01/10 05:36:56;;;;;;;4.72;2.22;;;3.10;97.10;;;;;;10371108;28;20026;-71
2024/01/10 05:41:57;;;;;;;4.30;2.55;;;3.10;97.10;;;;;;10374662;28;20033;-71
2024/01/10 05:47:00;;;;;;;4.00;2.30;;;3.10;97.10;;;;;;10368515;28;20030;-71
2024/01/10 05:52:01;;;;;;;5.03;2.60;;;3.10;97.10;;;;;;10367813;28;20100;-71
2024/01/10 05:57:03;;;;;;;5.32;2.50;;;3.10;97.10;;;;;;10372487;28;20029;-71
2024/01/10 06:02:04;;;;;;;5.50;2.50;;;3.10;97.10;;;;;;10372843;28;20520;-71
2024/01/10 06:07:05;;;;;;;5.63;2.10;;;3.10;97.10;;;;;;10373945;28;20034;-71
2024/01/10 06:12:06;;;;;;;4.35;2.20;;;3.10;97.00;;;;;;10373789;28;20076;-71
2024/01/10 06:17:07;;;;;;;6.55;3.13;;;3.10;97.00;;;;;;10354931;28;20022;-71
2024/01/10 06:22:08;;;;;;;3.15;1.98;;;;;;;;;;10351886;28;20113;-71
2024/01/10 06:27:10;;;;;;;4.97;2.38;;;3.10;96.80;;;;;;10368214;28;20205;-71
2024/01/10 06:32:11;;;;;;;6.05;2.60;;;3.10;97.10;;;;;;10372575;28;20026;-71
2024/01/10 06:37:11;;;;;;;4.43;2.50;;;3.10;97.10;;;;;;10373306;28;20068;-72
2024/01/10 06:42:12;;;;;;;4.32;2.40;;;3.00;97.00;;;;;;10375894;28;20027;-71
2024/01/10 06:47:14;;;;;;;3.70;2.20;;;3.00;97.00;;;;;;10374418;28;20025;-71
2024/01/10 06:52:16;;;;;;;4.32;2.47;;;3.00;97.00;;;;;;10377171;28;20505;-72
2024/01/10 06:57:17;;;;;;;5.68;2.35;;;3.00;97.00;;;;;;10378546;28;20457;-72
2024/01/10 07:02:17;;;;;;;3.72;2.30;;;3.00;97.00;;;;;;10354431;28;20025;-72
2024/01/10 07:07:18;;;;;;;5.00;2.60;;;3.00;97.00;;;;;;10349400;28;20118;-72
2024/01/10 07:12:19;;;;;;;3.92;2.10;;;3.00;97.00;;;;;;10348942;28;20026;-72
2024/01/10 07:17:22;;;;;;;5.15;2.45;;;3.00;97.00;;;;;;10344610;28;20026;-72
2024/01/10 07:22:23;;;;;;;5.22;2.67;;;3.00;97.00;;;;;;10334853;28;20045;-72
2024/01/10 07:27:24;;;;;;;3.65;2.35;;;3.00;97.00;;;;;;10367097;28;20549;-71
2024/01/10 07:32:25;;;;;;;3.83;1.88;;;3.00;97.00;;;;;;10359255;28;20068;-72
2024/01/10 07:37:26;;;;;;;5.28;2.85;;;3.00;97.00;;;;;;10366824;28;20160;-72
2024/01/10 07:42:26;;;;;;;4.80;2.60;;;3.00;97.00;;;;;;10373117;28;20117;-72
2024/01/10 07:47:27;;;;;;;2.75;2.05;;;3.00;97.00;;;;;;10357311;28;20045;-73
2024/01/10 07:52:27;;;;;;;4.65;2.33;;;3.00;97.00;;;;;;10371119;28;20149;-74
2024/01/10 07:57:28;;;;;;;4.25;2.58;;;3.00;97.00;;;;;;10374013;28;20115;-72
2024/01/10 08:02:32;;;;;;;6.10;2.63;;;3.00;97.00;;;;;;10383543;28;20022;-73
2024/01/10 08:07:36;;;;;;;5.55;2.97;;;3.00;97.00;;;;;;10359260;28;20128;-73
2024/01/10 08:12:38;;;;;;;5.05;2.60;;;3.00;97.00;;;;;;10377988;28;20386;-73
2024/01/10 08:17:41;;;;;;;3.65;2.30;;;3.00;97.00;;;;;;10376761;28;20029;-73
2024/01/10 08:22:44;;;;;;;5.53;2.65;;;4.30;97.30;;;;;;10372041;28;20049;-73
2024/01/10 08:27:45;;;;;;;5.85;2.30;;;4.30;97.40;;;;;;10383360;28;20029;-73
2024/01/10 08:32:46;;;;;;;5.18;2.88;;;4.80;97.40;;;;;;10381541;28;20049;-73
2024/01/10 08:37:47;;;;;;;5.25;2.80;;;4.50;97.40;;;;;;10375387;28;20036;-73
2024/01/10 08:42:47;;;;;;;5.00;2.60;;;3.00;97.00;;;;;;10377826;28;20191;-73
2024/01/10 08:47:48;;;;;;;5.10;2.55;;;3.00;97.00;;;;;;10375481;28;20120;-73
2024/01/10 08:52:49;;;;;;;5.82;2.45;;;3.00;96.90;;;;;;10380541;28;20033;-73
2024/01/10 08:57:51;;;;;;;4.65;2.47;;;3.60;97.40;;;;;;10377084;28;20156;-73
2024/01/10 09:02:55;;;;;;;6.15;3.03;;;3.00;96.90;;;;;;10366597;28;20058;-72
2024/01/10 09:07:55;;;;;;;5.90;2.83;;;3.10;96.90;;;;;;10377402;28;20390;-72
2024/01/10 09:12:58;;;;;;;6.82;3.10;;;3.10;96.90;;;;;;10375534;28;20038;-75
2024/01/10 09:18:00;;;;;;;4.40;2.13;;;3.10;96.90;;;;;;10373594;28;20305;-72
2024/01/10 09:23:01;;;;;;;4.05;2.72;;;3.20;97.00;;;;;;10342618;28;20393;-71
2024/01/10 09:28:01;;;;;;;7.18;2.80;;;3.30;96.90;;;;;;10365084;28;20021;-71
2024/01/10 09:33:02;;;;;;;5.78;2.90;;;3.30;96.80;;;;;;10364175;28;20038;-78
2024/01/10 09:38:03;;;;;;;5.47;2.58;;;3.40;96.90;;;;;;10364465;28;20030;-70
2024/01/10 09:43:05;;;;;;;6.03;2.97;;;3.30;96.70;;;;;;10369789;28;20121;-71
2024/01/10 09:48:06;;;;;;;6.28;2.80;;;3.30;96.80;;;;;;10368120;28;20162;-71
2024/01/10 09:53:07;;;;;;;4.32;2.50;;;3.30;96.80;;;;;;10367718;28;20494;-71
2024/01/10 09:58:11;;;;;;;4.47;2.63;;;3.30;96.90;;;;;;10352089;28;20069;-70
2024/01/10 10:03:13;;;;;;;3.85;2.33;;;3.30;96.80;;;;;;10370646;28;20021;-71
2024/01/10 10:08:15;;;;;;;6.55;3.03;;;3.40;96.80;;;;;;10372826;28;20033;-70
2024/01/10 10:13:28;;;;;;;4.93;2.67;;;3.40;96.80;;;;;;10371284;28;20025;-70
2024/01/10 10:18:29;;;;;;;3.85;2.38;;;3.50;96.70;;;;;;10377509;28;20105;-71
2024/01/10 10:23:30;;;;;;;5.18;2.67;;;3.60;96.70;;;;;;10364796;28;20030;-71
2024/01/10 10:28:31;;;;;;;5.90;2.92;;;3.70;96.60;;;;;;10360094;28;20350;-70
2024/01/10 10:33:35;;;;;;;5.70;2.50;;;3.80;96.50;;;;;;10347529;28;20041;-71
2024/01/10 10:38:37;;;;;;;4.38;2.33;;;3.90;96.50;;;;;;10358392;28;20629;-71
2024/01/10 10:43:39;;;;;;;5.07;2.63;;;4.00;96.40;;;;;;10348080;28;20558;-71
2024/01/10 10:48:40;;;;;;;4.57;2.40;;;4.10;96.40;;;;;;10371717;28;20022;-71
2024/01/10 10:53:45;;;;;;;4.15;2.63;;;4.10;96.40;;;;;;10346924;28;20502;-71
2024/01/10 10:58:46;;;;;;;3.80;2.28;;;4.20;96.30;;;;;;10363896;28;20471;-70
2024/01/10 11:03:47;;;;;;;5.10;2.63;;;4.30;96.30;;;;;;10343693;28;20494;-71
2024/01/10 11:08:53;;;;;;;4.28;2.33;;;4.30;96.30;;;;;;10358587;28;20032;-71
2024/01/10 11:14:21;;;;;;;6.45;2.65;;;4.80;96.40;;;;;;10361673;28;20101;-70
2024/01/10 11:19:21;;;;;;;4.88;2.55;;;4.40;96.30;;;;;;10355330;28;20147;-70
2024/01/10 11:24:24;;;;;;;4.80;2.67;;;4.50;96.50;;;;;;10355745;28;20022;-71
2024/01/10 11:29:28;;;;;;;5.38;2.75;;;4.60;96.20;;;;;;10360223;28;20568;-69
2024/01/10 11:34:29;;;;;;;4.07;2.20;;;4.60;96.20;;;;;;10356094;28;20033;-71
2024/01/10 11:39:31;;;;;;;4.70;2.63;;;4.70;96.20;;;;;;10349412;28;20026;-71
2024/01/10 11:44:32;;;;;;;5.47;3.28;;;4.60;96.20;;;;;;10356645;28;20026;-70
2024/01/10 11:49:33;;;;;;;8.38;3.58;;;4.60;96.20;;;;;;10365186;28;20506;-72
2024/01/10 11:54:44;;;;;;;6.60;2.70;;;4.70;96.20;;;;;;10365553;28;20076;-72
2024/01/10 11:59:45;;;;;;;4.80;2.53;;;4.60;96.30;;;;;;10367934;28;20392;-70
2024/01/10 12:04:46;;;;;;;5.63;3.00;;;4.60;96.30;;;;;;10367674;28;20013;-71
2024/01/10 12:09:47;;;;;;;5.97;2.53;;;4.60;96.40;;;;;;10361582;28;20054;-70
2024/01/10 12:14:48;;;;;;;6.82;2.60;;;4.50;96.50;;;;;;10358014;28;20113;-71
2024/01/10 12:19:48;;;;;;;5.15;2.70;;;4.50;96.50;;;;;;10367679;28;20108;-70
2024/01/10 12:24:49;;;;;;;5.38;2.70;;;4.50;96.60;;;;;;10346326;28;20022;-71
2024/01/10 12:29:50;;;;;;;3.03;2.00;;;4.40;96.90;;;;;;10368256;28;20116;-71
2024/01/10 12:35:04;;;;;;;5.57;2.45;;;4.40;96.60;;;;;;10372833;28;20083;-70
2024/01/10 12:40:08;;;;;;;5.85;2.95;;;4.40;96.70;;;;;;10366854;28;20104;-73
2024/01/10 12:45:21;;;;;;;7.90;3.10;;;4.40;96.80;;;;;;10347152;28;20513;-74
2024/01/10 12:50:22;;;;;;;6.93;2.78;;;4.40;96.80;;;;;;10360216;28;20034;-75
2024/01/10 12:55:27;;;;;;;5.63;2.70;;;4.50;97.10;;;;;;10352040;28;20026;-73
2024/01/10 13:00:28;;;;;;;6.03;2.55;;;4.50;96.80;;;;;;10356218;28;20033;-74
2024/01/10 13:05:29;;;;;;;5.32;2.70;;;4.40;96.70;;;;;;10338412;28;20034;-72
2024/01/10 13:10:30;;;;;;;5.63;2.42;;;4.40;96.80;;;;;;10346287;28;20040;-74
2024/01/10 13:15:31;;;;;;;8.23;2.70;;;4.40;96.90;;;;;;10345447;28;20112;-74
2024/01/10 13:20:31;;;;;;;5.20;2.75;;;4.40;96.80;;;;;;10361425;28;20432;-74
2024/01/10 13:25:32;;;;;;;3.83;2.08;;;4.40;96.80;;;;;;10360212;28;20486;-73
2024/01/10 13:30:33;;;;;;;5.25;2.83;;;4.50;97.20;;;;;;10367386;28;20263;-73
2024/01/10 13:35:33;;;;;;;5.20;2.67;;;4.50;96.90;;;;;;10351577;28;20068;-73
2024/01/10 13:40:34;;;;;;;3.13;1.90;;;4.50;96.90;;;;;;10369538;28;20084;-72
2024/01/10 13:45:34;;;;;;;5.90;2.45;;;4.40;96.90;;;;;;10360121;28;20117;-73
2024/01/10 13:50:35;;;;;;;4.95;2.60;;;4.40;96.90;;;;;;10362230;28;20022;-72
2024/01/10 13:55:36;;;;;;;5.10;2.35;;;4.30;96.90;;;;;;10351710;28;20022;-72
2024/01/10 14:00:37;;;;;;;5.90;2.78;;;4.30;97.00;;;;;;10340221;28;20022;-72
2024/01/10 14:05:39;;;;;;;3.83;2.13;;;4.30;97.00;;;;;;10368911;28;20021;-71
2024/01/10 14:10:41;;;;;;;3.60;2.05;;;4.30;97.10;;;;;;10369288;28;20030;-72
2024/01/10 14:15:43;;;;;;;6.28;3.08;;;4.30;97.00;;;;;;10367248;28;20018;-80
2024/01/10 14:20:44;;;;;;;6.50;2.70;;;4.40;97.20;;;;;;10360138;28;20109;-73
2024/01/10 14:25:45;;;;;;;7.10;3.03;;;4.50;97.40;;;;;;10361803;28;20477;-73
2024/01/10 14:30:46;;;;;;;7.22;2.88;;;4.50;97.10;;;;;;10343150;28;20029;-72
2024/01/10 14:35:46;;;;;;;5.75;3.13;;;4.50;97.10;;;;;;10359450;28;20022;-72
2024/01/10 14:40:48;;;;;;;6.65;2.22;;;4.40;97.10;;;;;;10361483;28;20033;-75
2024/01/10 14:45:48;;;;;;;6.90;3.00;;;4.30;97.20;;;;;;10359838;28;20489;-73
2024/01/10 14:50:49;;;;;;;6.70;3.05;;;5.80;97.50;;;;;;10357111;28;20032;-73
2024/01/10 14:55:49;;;;;;;7.35;2.60;;;4.30;97.20;;;;;;10356130;28;20014;-73
2024/01/10 15:00:50;;;;;;;5.40;2.47;;;4.30;97.30;;;;;;10353347;28;20017;-73
2024/01/10 15:05:51;;;;;;;5.95;2.65;;;4.20;97.30;;;;;;10351051;28;20029;-74
2024/01/10 15:10:52;;;;;;;6.38;3.00;;;4.50;97.30;;;;;;10356213;28;20626;-72
2024/01/10 15:15:53;;;;;;;5.38;2.97;;;4.30;97.60;;;;;;10357428;28;20091;-72
2024/01/10 15:20:53;;;;;;;9.75;3.22;;;4.30;97.30;;;;;;10359000;28;20121;-73
2024/01/10 15:25:54;;;;;;;6.43;2.78;;;4.30;97.20;;;;;;10355959;28;20033;-73
2024/01/10 15:30:54;;;;;;;6.25;2.78;;;4.20;97.20;;;;;;10365461;28;20033;-74
2024/01/10 15:35:55;;;;;;;8.65;2.78;;;4.20;97.30;;;;;;10359581;28;20018;-72
2024/01/10 15:40:59;;;;;;;6.63;2.90;;;4.20;97.20;;;;;;10363169;28;20030;-72
2024/01/10 15:45:59;;;;;;;8.48;2.50;;;4.10;97.20;;;;;;10351192;28;20026;-71
2024/01/10 15:51:00;;;;;;;6.65;2.50;;;4.10;97.20;;;;;;10354560;28;20061;-71
2024/01/10 15:56:00;;;;;;;9.55;2.70;;;4.10;97.20;;;;;;10361949;28;20617;-72
2024/01/10 16:01:01;;;;;;;6.60;2.60;;;4.10;97.30;;;;;;10348913;28;20096;-73
2024/01/10 16:06:02;;;;;;;7.25;3.00;;;4.00;97.30;;;;;;10349950;28;20521;-73
2024/01/10 16:11:03;;;;;;;8.57;3.05;;;3.90;97.30;;;;;;10366059;28;20026;-73
2024/01/10 16:16:08;;;;;;;8.52;3.53;;;3.70;97.40;;;;;;10367675;28;20109;-76
2024/01/10 16:21:09;;;;;;;8.27;3.25;;;3.60;97.40;;;;;;10349616;28;20485;-76
2024/01/10 16:26:10;;;;;;;11.02;3.35;;;3.50;97.40;;;;;;10363789;28;20118;-74
2024/01/10 16:31:11;;;;;;;9.00;3.65;;;3.50;97.40;;;;;;10367575;28;20064;-73
2024/01/10 16:36:11;;;;;;;8.95;3.42;;;3.40;97.40;;;;;;10369184;28;20299;-72
2024/01/10 16:41:12;;;;;;;6.75;3.38;;;3.70;97.20;;;;;;10364441;28;20033;-73
2024/01/10 16:46:14;;;;;;;8.05;3.63;;;3.80;97.00;;;;;;10350495;28;20032;-73
2024/01/10 16:51:14;;;;;;;7.88;3.53;;;3.80;97.00;;;;;;10366004;28;20504;-73
2024/01/10 16:56:15;;;;;;;7.32;3.58;;;3.80;97.00;;;;;;10367596;28;20027;-73
2024/01/10 17:01:15;;;;;;;6.70;3.00;;;3.80;97.00;;;;;;10355432;28;20045;-73
2024/01/10 17:06:16;;;;;;;8.93;3.92;;;3.90;97.00;;;;;;10364484;28;20028;-74
2024/01/10 17:11:17;;;;;;;8.90;3.50;;;3.80;97.00;;;;;;10372591;28;20014;-72
2024/01/10 17:16:18;;;;;;;8.57;3.20;;;3.80;97.00;;;;;;10367966;28;20029;-73
2024/01/10 17:21:18;;;;;;;7.75;3.70;;;3.80;97.10;;;;;;10361590;28;20547;-73
2024/01/10 17:26:19;;;;;;;9.00;3.67;;;3.90;97.00;;;;;;10373954;28;20025;-73
2024/01/10 17:31:19;;;;;;;11.88;4.60;;;3.90;96.90;;;;;;10365908;28;20391;-73
2024/01/10 17:36:21;;;;;;;8.60;3.78;;;3.80;96.80;;;;;;10364787;28;20030;-72
2024/01/10 17:41:22;;;;;;;9.90;4.43;;;3.80;96.90;;;;;;10368595;28;20098;-72
2024/01/10 17:46:23;;;;;;;8.68;3.65;;;3.80;96.90;;;;;;10348856;28;20041;-72
2024/01/10 17:51:27;;;;;;;9.82;4.30;;;3.90;97.00;;;;;;10365878;28;20819;-72
2024/01/10 17:56:28;;;;;;;13.20;4.15;;;3.80;96.90;;;;;;10367727;28;20054;-73
2024/01/10 18:01:28;;;;;;;10.57;4.38;;;3.80;96.80;;;;;;10378854;28;20079;-74
2024/01/10 18:06:29;;;;;;;12.35;4.68;;;3.80;96.80;;;;;;10354024;28;20457;-72
2024/01/10 18:11:30;;;;;;;11.43;3.90;;;3.80;96.80;;;;;;10372150;28;20033;-74
2024/01/10 18:16:30;;;;;;;10.32;4.45;;;3.80;97.00;;;;;;10366114;28;20030;-74
2024/01/10 18:21:31;;;;;;;9.63;4.13;;;3.80;96.90;;;;;;10368691;28;20036;-73
2024/01/10 18:26:31;;;;;;;9.52;4.43;;;3.80;96.90;;;;;;10364232;28;20267;-73
2024/01/10 18:31:32;;;;;;;8.52;4.53;;;3.80;96.90;;;;;;10364957;28;20111;-73
2024/01/10 18:36:35;;;;;;;8.95;4.63;;;3.80;96.90;;;;;;10365200;28;20025;-72
2024/01/10 18:41:38;;;;;;;9.15;3.97;;;3.80;96.90;;;;;;10362369;28;20068;-73
2024/01/10 18:46:38;;;;;;;9.60;3.85;;;3.80;96.90;;;;;;10375649;28;20021;-72
2024/01/10 18:51:41;;;;;;;9.25;3.72;;;3.70;96.90;;;;;;10366054;28;20029;-73
2024/01/10 18:56:41;;;;;;;10.07;4.10;;;3.70;96.90;;;;;;10373519;28;20108;-73
2024/01/10 19:01:43;;;;;;;7.50;4.10;;;3.40;96.90;;;;;;10368444;28;20018;-73
2024/01/10 19:06:45;;;;;;;10.18;4.38;;;3.80;97.00;;;;;;10371511;28;20037;-73
2024/01/10 19:11:46;;;;;;;6.80;3.50;;;3.70;97.00;;;;;;10369904;28;20030;-73
2024/01/10 19:16:48;;;;;;;10.85;4.20;;;3.70;97.00;;;;;;10355730;28;20104;-73
2024/01/10 19:21:49;;;;;;;9.60;3.88;;;3.70;97.00;;;;;;10353108;28;20026;-73
2024/01/10 19:26:50;;;;;;;9.48;4.25;;;3.70;97.00;;;;;;10359200;28;20022;-73
2024/01/10 19:31:51;;;;;;;8.48;3.80;;;3.70;97.00;;;;;;10336648;28;20456;-73
2024/01/10 19:36:51;;;;;;;9.05;4.35;;;3.70;97.00;;;;;;10365913;28;20017;-73
2024/01/10 19:41:53;;;;;;;9.30;3.80;;;3.70;97.00;;;;;;10370983;28;20026;-73
2024/01/10 19:46:54;;;;;;;7.50;3.90;;;3.70;97.00;;;;;;10373598;28;20034;-73
2024/01/10 19:51:54;;;;;;;9.57;4.15;;;3.70;97.00;;;;;;10353074;28;20033;-73
2024/01/10 19:56:55;;;;;;;9.70;3.88;;;3.70;97.00;;;;;;10368441;28;20022;-73
2024/01/10 20:01:55;;;;;;;8.38;4.00;;;3.70;97.00;;;;;;10373858;28;20026;-73
2024/01/10 20:06:56;;;;;;;7.85;3.88;;;3.70;97.00;;;;;;10370860;28;20575;-73
2024/01/10 20:11:57;;;;;;;9.93;4.53;;;3.60;97.00;;;;;;10369919;28;20662;-72
2024/01/10 20:16:57;;;;;;;9.43;4.10;;;3.60;97.00;;;;;;10373783;28;20030;-73
2024/01/10 20:21:58;;;;;;;8.93;4.25;;;3.60;97.10;;;;;;10354777;28;20024;-74
2024/01/10 20:26:58;;;;;;;11.85;4.60;;;3.60;97.10;;;;;;10368872;28;20540;-73
2024/01/10 20:31:59;;;;;;;8.25;4.25;;;3.70;97.10;;;;;;10374329;28;20038;-74
2024/01/10 20:36:59;;;;;;;8.63;4.45;;;4.80;97.30;;;;;;10368987;28;20032;-72
2024/01/10 20:42:00;;;;;;;9.30;4.22;;;3.60;97.10;;;;;;10374559;28;20017;-72
2024/01/10 20:47:01;;;;;;;9.95;4.50;;;3.60;97.10;;;;;;10360161;28;20099;-72
2024/01/10 20:52:02;;;;;;;9.32;4.43;;;3.60;97.10;;;;;;10368563;28;20030;-72
2024/01/10 20:57:03;;;;;;;8.55;4.03;;;3.60;97.10;;;;;;10366182;28;20014;-72
2024/01/10 21:02:03;;;;;;;8.15;4.20;;;3.60;97.10;;;;;;10382969;28;20402;-72
2024/01/10 21:07:06;;;;;;;10.23;4.55;;;3.60;97.10;;;;;;10373167;28;20032;-72
2024/01/10 21:12:11;;;;;;;9.25;4.45;;;3.50;97.10;;;;;;10355440;28;20021;-72
2024/01/10 21:17:12;;;;;;;10.13;4.63;;;3.50;97.10;;;;;;10375590;28;20022;-72
2024/01/10 21:22:13;;;;;;;8.07;4.68;;;3.50;97.10;;;;;;10379364;28;20324;-72
2024/01/10 21:27:14;;;;;;;9.60;4.72;;;3.50;97.10;;;;;;10377486;28;20025;-72
2024/01/10 21:32:14;;;;;;;10.32;4.20;;;3.50;97.10;;;;;;10368920;28;20029;-72
2024/01/10 21:37:15;;;;;;;11.45;5.28;;;3.50;97.10;;;;;;10378565;28;20405;-72
2024/01/10 21:42:16;;;;;;;8.98;4.43;;;3.50;97.10;;;;;;10373241;28;20649;-72
2024/01/10 21:47:17;;;;;;;12.07;4.90;;;3.50;97.10;;;;;;10383578;28;20096;-72
2024/01/10 21:52:17;;;;;;;11.10;4.95;;;3.50;97.10;;;;;;10363994;28;20118;-72
2024/01/10 21:57:20;;;;;;;10.10;5.05;;;3.50;97.10;;;;;;10362566;28;20049;-72
2024/01/10 22:02:21;;;;;;;10.40;4.93;;;3.50;97.10;;;;;;10365581;28;20083;-72
2024/01/10 22:07:22;;;;;;;11.88;5.53;;;3.50;97.10;;;;;;10381478;28;20466;-73
2024/01/10 22:12:25;;;;;;;10.30;4.93;;;3.50;97.10;;;;;;10376765;28;20109;-72
2024/01/10 22:17:27;;;;;;;12.85;4.97;;;3.50;97.10;;;;;;10376393;28;20036;-72
2024/01/10 22:22:28;;;;;;;12.07;5.28;;;3.40;97.10;;;;;;10378184;28;20056;-71
2024/01/10 22:27:33;;;;;;;11.75;5.20;;;3.40;97.10;;;;;;10351392;28;20026;-72
2024/01/10 22:32:33;;;;;;;10.05;5.25;;;3.40;97.10;;;;;;10368068;28;20588;-72
2024/01/10 22:37:34;;;;;;;11.88;4.97;;;3.40;97.10;;;;;;10372857;28;20080;-72
2024/01/10 22:42:36;;;;;;;10.38;4.95;;;3.40;97.10;;;;;;10370966;28;20585;-71
2024/01/10 22:47:36;;;;;;;10.88;5.32;;;3.40;97.10;;;;;;10370535;28;20068;-72
2024/01/10 22:52:37;;;;;;;9.07;4.93;;;3.40;97.10;;;;;;10376041;28;20504;-72
2024/01/10 22:57:38;;;;;;;10.10;5.00;;;3.40;97.10;;;;;;10382513;28;20036;-72
2024/01/10 23:02:41;;;;;;;11.27;5.10;;;3.40;97.10;;;;;;10377112;28;20036;-72
2024/01/10 23:07:41;;;;;;;10.88;5.22;;;3.40;97.10;;;;;;10340350;28;20034;-72
2024/01/10 23:12:42;;;;;;;9.55;4.65;;;3.50;97.10;;;;;;10357894;28;20398;-72
2024/01/10 23:17:43;;;;;;;13.55;5.55;;;3.40;97.10;;;;;;10357754;28;20625;-72
2024/01/10 23:22:43;;;;;;;11.10;5.07;;;3.40;97.10;;;;;;10362456;28;20525;-71
2024/01/10 23:27:44;;;;;;;13.48;5.75;;;3.40;97.10;;;;;;10358881;28;20037;-72
2024/01/10 23:32:45;;;;;;;10.63;5.00;;;3.40;97.10;;;;;;10353622;28;20030;-72
2024/01/10 23:37:45;;;;;;;11.68;5.20;;;3.30;97.10;;;;;;10360210;28;20030;-71
2024/01/10 23:42:46;;;;;;;11.32;5.10;;;3.30;97.10;;;;;;10359074;28;20037;-72
2024/01/10 23:47:48;;;;;;;10.40;5.60;;;3.30;97.10;;;;;;10353698;28;20026;-72
2024/01/10 23:52:49;;;;;;;12.70;5.85;;;3.30;97.10;;;;;;10356402;28;20479;-72
2024/01/10 23:57:50;;;;;;;9.85;4.95;;;3.30;97.10;;;;;;10364326;28;20025;-72
